Pauls Store, Texas
Current Conditions -  °F | °C
As of 4:35 PM on Monday 26 Jan 2015 (Local Time) from KOCH Reporting Station
Clear Clear  
Wind Chill: 66°   Ceiling: Unl
Heat Index: 66°   Visibility: 10mi
Dew Point: 36°   Wind: 6mph
Humidity: 32%   Direction: 270°W
Pressure: 30.11"   Gusts: NA
Location:  31.7022°N, 93.9592°W
Report Text: KOCH 262235Z 27005KT 10SM CLR 19/02 A3011 RMK AO1
Loading
Personal Weather Stations






























Interactive Weather Map New forecast layout! Learn more

10-Day Weather Forecast

Advertisements
Track Severe Weather on mobile